Time;durP1;ratioP1;P1;durP2;ratioP2;P2;SDS_P1;SDS_P2;PMS_P1;PMS_P2;Temp;Humidity;BMP_temperature;BMP_pressure;BME280_temperature;BME280_humidity;BME280_pressure;Samples;Min_cycle;Max_cycle;Signal;HPM_P1;HPM_P2
2022/07/23 00:01:50;;;;;;;;;;;17.90;92.60;;;;;;5040429;28;19928;-71
2022/07/23 00:04:18;;;;;;;;;;;17.90;92.50;;;;;;5041755;28;19928;-71
2022/07/23 00:06:45;;;;;;;;;;;18.00;92.50;;;;;;5041561;28;19928;-71
2022/07/23 00:09:13;;;;;;;;;;;18.00;92.40;;;;;;5023029;28;19921;-71
2022/07/23 00:11:40;;;;;;;;;;;18.00;92.40;;;;;;5041876;28;19944;-71
2022/07/23 00:14:07;;;;;;;;;;;18.00;92.50;;;;;;5023350;28;20394;-71
2022/07/23 00:16:35;;;;;;;;;;;18.10;92.50;;;;;;5041349;28;19928;-72
2022/07/23 00:19:03;;;;;;;;;;;18.00;92.50;;;;;;5041596;28;20344;-71
2022/07/23 00:21:31;;;;;;;;;;;18.10;92.50;;;;;;5022862;28;19921;-71
2022/07/23 00:23:58;;;;;;;;;;;18.10;92.40;;;;;;5024248;28;19992;-71
2022/07/23 00:26:26;;;;;;;;;;;18.10;92.40;;;;;;5041494;28;19921;-71
2022/07/23 00:28:53;;;;;;;;;;;18.10;92.40;;;;;;5023135;28;19928;-71
2022/07/23 00:31:20;;;;;;;;;;;18.00;92.40;;;;;;5041198;28;19973;-71
2022/07/23 00:33:48;;;;;;;;;;;18.00;92.40;;;;;;5040182;28;19932;-71
2022/07/23 00:36:16;;;;;;;;;;;18.00;92.40;;;;;;5041301;28;19921;-71
2022/07/23 00:38:43;;;;;;;;;;;18.00;92.40;;;;;;5041083;28;19996;-71
2022/07/23 00:41:11;;;;;;;;;;;18.00;92.50;;;;;;5022836;28;19921;-71
2022/07/23 00:43:38;;;;;;;;;;;18.00;92.50;;;;;;5023828;28;20382;-71
2022/07/23 00:46:07;;;;;;;;;;;18.00;92.40;;;;;;5024113;28;19934;-71
2022/07/23 00:48:34;;;;;;;;;;;18.00;92.50;;;;;;5040063;28;19928;-72
2022/07/23 00:51:02;;;;;;;;;;;18.00;92.50;;;;;;5007320;28;19921;-71
2022/07/23 00:53:31;;;;;;;;;;;18.00;92.50;;;;;;5023936;28;19921;-71
2022/07/23 00:55:58;;;;;;;;;;;18.00;92.50;;;;;;5006042;28;20378;-71
2022/07/23 00:58:26;;;;;;;;;;;18.00;92.50;;;;;;5041203;28;19921;-71
2022/07/23 01:00:53;;;;;;;;;;;18.00;92.50;;;;;;5022832;28;19944;-71
2022/07/23 01:03:22;;;;;;;;;;;18.00;92.60;;;;;;5005375;28;19921;-71
2022/07/23 01:05:49;;;;;;;;;;;18.00;92.60;;;;;;5037760;28;19924;-71
2022/07/23 01:08:16;;;;;;;;;;;18.00;92.60;;;;;;5019679;28;20229;-71
2022/07/23 01:10:45;;;;;;;;;;;18.00;92.50;;;;;;5037897;28;19921;-71
2022/07/23 01:13:13;;;;;;;;;;;18.00;92.50;;;;;;5020502;28;19921;-71
2022/07/23 01:15:40;;;;;;;;;;;17.90;92.40;;;;;;5019654;28;19921;-71
2022/07/23 01:18:08;;;;;;;;;;;17.90;92.50;;;;;;5020432;28;20352;-71
2022/07/23 01:20:37;;;;;;;;;;;17.90;92.50;;;;;;5019171;28;19921;-71
2022/07/23 01:23:06;;;;;;;;;;;18.00;92.70;;;;;;5020438;28;19921;-71
2022/07/23 01:25:35;;;;;;;;;;;17.90;92.50;;;;;;5004161;28;19928;-71
2022/07/23 01:28:03;;;;;;;;;;;17.90;92.50;;;;;;5002627;28;19920;-71
2022/07/23 01:30:31;;;;;;;;;;;17.80;92.60;;;;;;5037427;28;19920;-71
2022/07/23 01:33:00;;;;;;;;;;;17.80;92.60;;;;;;5020061;28;20382;-71
2022/07/23 01:35:27;;;;;;;;;;;17.70;92.90;;;;;;5018851;28;19921;-71
2022/07/23 01:37:59;;;;;;;;;;;17.60;92.80;;;;;;5020013;28;19928;-71
2022/07/23 01:40:27;;;;;;;;;;;17.60;92.90;;;;;;5018784;28;19921;-71
2022/07/23 01:42:56;;;;;;;;;;;17.60;93.00;;;;;;5020263;28;20251;-71
2022/07/23 01:45:24;;;;;;;;;;;17.60;93.10;;;;;;5020025;28;20287;-71
2022/07/23 01:47:52;;;;;;;;;;;17.50;93.00;;;;;;5002919;28;19921;-71
2022/07/23 01:50:19;;;;;;;;;;;17.50;93.10;;;;;;5019667;28;19928;-71
2022/07/23 01:53:09;;;;;;;;;;;17.60;93.10;;;;;;5020065;28;19925;-71
2022/07/23 01:55:37;;;;;;;;;;;17.50;93.00;;;;;;5018772;28;19944;-71
2022/07/23 01:58:05;;;;;;;;;;;17.50;93.20;;;;;;5019593;28;19928;-71
2022/07/23 02:00:33;;;;;;;;;;;17.60;93.20;;;;;;5018642;28;19921;-71
2022/07/23 02:03:01;;;;;;;;;;;17.70;93.10;;;;;;5019721;28;19940;-71
2022/07/23 02:05:30;;;;;;;;;;;17.60;93.10;;;;;;5019715;28;19936;-71
2022/07/23 02:07:59;;;;;;;;;;;17.70;93.10;;;;;;5035617;28;20368;-71
2022/07/23 02:10:27;;;;;;;;;;;17.70;93.10;;;;;;5036685;28;20348;-71
2022/07/23 02:12:54;;;;;;;;;;;17.70;93.10;;;;;;5019472;28;19932;-71
2022/07/23 02:15:22;;;;;;;;;;;17.70;93.00;;;;;;5017880;28;19921;-71
2022/07/23 02:17:49;;;;;;;;;;;17.70;93.10;;;;;;5019651;28;19936;-71
2022/07/23 02:20:16;;;;;;;;;;;17.70;93.00;;;;;;5002812;28;19921;-71
2022/07/23 02:22:44;;;;;;;;;;;17.70;93.10;;;;;;5017958;28;20371;-71
2022/07/23 02:25:11;;;;;;;;;;;17.70;93.10;;;;;;5019146;28;20274;-71
2022/07/23 02:27:39;;;;;;;;;;;17.70;93.20;;;;;;5018067;28;19932;-71
2022/07/23 02:30:07;;;;;;;;;;;17.60;93.10;;;;;;5019157;28;19921;-71
2022/07/23 02:32:35;;;;;;;;;;;17.60;93.30;;;;;;5003390;28;19920;-71
2022/07/23 02:35:03;;;;;;;;;;;17.60;93.20;;;;;;5001605;28;19940;-72
2022/07/23 02:37:32;;;;;;;;;;;17.70;93.40;;;;;;5002673;28;19921;-71
2022/07/23 02:39:59;;;;;;;;;;;17.60;93.20;;;;;;5048667;28;20378;-71
2022/07/23 02:42:27;;;;;;;;;;;17.60;93.30;;;;;;5053955;28;19927;-71
2022/07/23 02:44:54;;;;;;;;;;;17.60;93.30;;;;;;5055113;28;19921;-71
2022/07/23 02:47:22;;;;;;;;;;;17.70;93.30;;;;;;5054319;28;19921;-71
2022/07/23 02:49:49;;;;;;;;;;;17.70;93.20;;;;;;5055132;28;19943;-71
2022/07/23 02:52:18;;;;;;;;;;;17.70;93.20;;;;;;5038942;28;19921;-72
2022/07/23 02:54:45;;;;;;;;;;;17.70;93.20;;;;;;5053979;28;19920;-71
2022/07/23 02:57:15;;;;;;;;;;;17.70;93.10;;;;;;5022241;28;20252;-71
2022/07/23 02:59:43;;;;;;;;;;;17.60;93.10;;;;;;5054799;28;19921;-71
2022/07/23 03:02:10;;;;;;;;;;;17.60;93.10;;;;;;5053786;28;19920;-71
2022/07/23 03:04:38;;;;;;;;;;;17.60;93.30;;;;;;5055064;28;19932;-71
2022/07/23 03:07:05;;;;;;;;;;;17.60;93.40;;;;;;5037271;28;19928;-71
2022/07/23 03:09:33;;;;;;;;;;;17.50;93.20;;;;;;5055724;28;19921;-71
2022/07/23 03:12:00;;;;;;;;;;;17.50;93.30;;;;;;5055425;28;19921;-71
2022/07/23 03:14:28;;;;;;;;;;;17.50;93.40;;;;;;5054061;28;19924;-71
2022/07/23 03:16:56;;;;;;;;;;;17.50;93.40;;;;;;5055404;28;20343;-71
2022/07/23 03:19:23;;;;;;;;;;;17.40;93.50;;;;;;5054539;28;19931;-71
2022/07/23 03:21:51;;;;;;;;;;;17.40;93.50;;;;;;5053442;28;19929;-71
2022/07/23 03:24:19;;;;;;;;;;;17.40;93.50;;;;;;5054433;28;19921;-71
2022/07/23 03:26:46;;;;;;;;;;;17.40;93.60;;;;;;5054175;28;19920;-71
2022/07/23 03:29:14;;;;;;;;;;;17.30;93.60;;;;;;5053304;28;19935;-72
2022/07/23 03:31:42;;;;;;;;;;;17.30;93.70;;;;;;5054461;28;19921;-72
2022/07/23 03:34:10;;;;;;;;;;;17.20;93.70;;;;;;5053394;28;19928;-71
2022/07/23 03:36:37;;;;;;;;;;;17.20;93.80;;;;;;5037335;28;19932;-71
2022/07/23 03:39:05;;;;;;;;;;;17.10;93.80;;;;;;5054335;28;19921;-72
2022/07/23 03:41:39;;;;;;;;;;;17.10;93.80;;;;;;5021546;28;20271;-72
2022/07/23 03:44:06;;;;;;;;;;;17.10;93.90;;;;;;5055299;28;19921;-71
2022/07/23 03:46:34;;;;;;;;;;;17.10;94.00;;;;;;5054088;28;19928;-72
2022/07/23 03:49:01;;;;;;;;;;;17.10;94.10;;;;;;5052989;28;19921;-71
2022/07/23 03:51:29;;;;;;;;;;;17.10;94.00;;;;;;5054133;28;20283;-71
2022/07/23 03:53:57;;;;;;;;;;;17.10;94.00;;;;;;5053074;28;19921;-71
2022/07/23 03:56:24;;;;;;;;;;;17.20;94.00;;;;;;5053996;28;19921;-71
2022/07/23 03:58:52;;;;;;;;;;;17.20;93.90;;;;;;5053949;28;19921;-71
2022/07/23 04:01:19;;;;;;;;;;;17.20;94.00;;;;;;5052918;28;19921;-72
2022/07/23 04:03:47;;;;;;;;;;;17.20;93.90;;;;;;5055053;28;20264;-71
2022/07/23 04:06:14;;;;;;;;;;;17.10;94.10;;;;;;5053982;28;19940;-71
2022/07/23 04:08:42;;;;;;;;;;;17.10;94.00;;;;;;5052945;28;19920;-71
2022/07/23 04:11:09;;;;;;;;;;;17.10;94.00;;;;;;5053956;28;19935;-71
2022/07/23 04:13:37;;;;;;;;;;;17.10;94.20;;;;;;5037369;28;19921;-71
2022/07/23 04:16:06;;;;;;;;;;;17.10;94.30;;;;;;5052596;28;19921;-71
2022/07/23 04:18:34;;;;;;;;;;;17.20;94.20;;;;;;5054007;28;19924;-71
2022/07/23 04:21:10;;;;;;;;;;;17.20;94.20;;;;;;5021289;28;20282;-71
2022/07/23 04:23:38;;;;;;;;;;;17.20;94.20;;;;;;5053736;28;19921;-71
2022/07/23 04:26:06;;;;;;;;;;;17.20;94.00;;;;;;5053745;28;19943;-71
2022/07/23 04:28:34;;;;;;;;;;;17.20;94.10;;;;;;5052854;28;20355;-71
2022/07/23 04:31:02;;;;;;;;;;;17.20;94.20;;;;;;5053681;28;19931;-71
2022/07/23 04:33:30;;;;;;;;;;;17.20;94.30;;;;;;5037603;28;19920;-71
2022/07/23 04:36:02;;;;;;;;;;;17.20;94.20;;;;;;5052565;28;19931;-71
2022/07/23 04:38:29;;;;;;;;;;;17.20;94.30;;;;;;5055197;28;19943;-71
2022/07/23 04:41:00;;;;;;;;;;;17.10;94.30;;;;;;5056498;28;19920;-71
2022/07/23 04:43:28;;;;;;;;;;;17.20;94.30;;;;;;5057358;28;19936;-71
2022/07/23 04:45:55;;;;;;;;;;;17.20;94.30;;;;;;5057465;28;20343;-71
2022/07/23 04:48:23;;;;;;;;;;;17.20;94.50;;;;;;5056270;28;19928;-71
2022/07/23 04:50:58;;;;;;;;;;;17.20;94.50;;;;;;5040913;28;19932;-71
2022/07/23 04:53:29;;;;;;;;;;;17.20;94.40;;;;;;5057418;28;19920;-71
2022/07/23 04:56:00;;;;;;;;;;;17.20;94.50;;;;;;5056905;28;20314;-72
2022/07/23 04:58:28;;;;;;;;;;;17.00;94.40;;;;;;5056875;28;19932;-71
2022/07/23 05:00:57;;;;;;;;;;;17.10;94.50;;;;;;5056013;28;20355;-71
2022/07/23 05:03:25;;;;;;;;;;;17.00;94.70;;;;;;5057002;28;19928;-71
2022/07/23 05:05:53;;;;;;;;;;;17.00;94.80;;;;;;5040597;28;19921;-71
2022/07/23 05:08:21;;;;;;;;;;;17.10;94.80;;;;;;5039243;28;19935;-71
2022/07/23 05:10:54;;;;;;;;;;;17.00;94.90;;;;;;5057566;28;20267;-72
2022/07/23 05:13:22;;;;;;;;;;;16.90;94.80;;;;;;5057194;28;20263;-72
2022/07/23 05:15:51;;;;;;;;;;;17.00;95.10;;;;;;5039555;28;19920;-71
2022/07/23 05:18:19;;;;;;;;;;;16.90;95.10;;;;;;5040480;28;19921;-71
2022/07/23 05:20:47;;;;;;;;;;;17.00;95.00;;;;;;5055761;28;19931;-71
2022/07/23 05:23:18;;;;;;;;;;;17.00;95.10;;;;;;5057105;28;19928;-71
2022/07/23 05:25:47;;;;;;;;;;;17.00;95.20;;;;;;5056705;28;19920;-71
2022/07/23 05:28:16;;;;;;;;;;;17.00;95.30;;;;;;5055420;28;19928;-71
2022/07/23 05:30:48;;;;;;;;;;;17.00;95.50;;;;;;5056885;28;19928;-71
2022/07/23 05:33:18;;;;;;;;;;;17.00;95.50;;;;;;5040476;28;20375;-71
2022/07/23 05:35:45;;;;;;;;;;;17.00;95.50;;;;;;5056439;28;20263;-71
2022/07/23 05:38:24;;;;;;;;;;;17.10;95.60;;;;;;5056521;28;19921;-71
2022/07/23 05:40:53;;;;;;;;;;;17.10;95.60;;;;;;5038927;28;20370;-71
2022/07/23 05:43:21;;;;;;;;;;;17.10;95.70;;;;;;5056259;28;20378;-71
2022/07/23 05:45:48;;;;;;;;;;;17.20;95.60;;;;;;5057031;28;19931;-71
2022/07/23 05:48:16;;;;;;;;;;;17.20;95.50;;;;;;5055305;28;19927;-71
2022/07/23 05:50:56;;;;;;;;;;;17.30;95.60;;;;;;5039363;28;19932;-71
2022/07/23 05:53:32;;;;;;;;;;;17.40;95.50;;;;;;5039723;28;19931;-71
2022/07/23 05:56:29;;;;;;;;;;;17.40;95.40;;;;;;5049522;28;19921;-71
2022/07/23 05:58:56;;;;;;;;;;;17.40;95.40;;;;;;5055961;28;19920;-71
2022/07/23 06:01:24;;;;;;;;;;;17.50;95.30;;;;;;5054861;28;19921;-71
2022/07/23 06:04:03;;;;;;;;;;;17.50;95.30;;;;;;5056082;28;20256;-71
2022/07/23 06:06:35;;;;;;;;;;;17.50;95.40;;;;;;5055787;28;19921;-71
2022/07/23 06:09:03;;;;;;;;;;;17.50;95.30;;;;;;5054706;28;19928;-72
2022/07/23 06:11:31;;;;;;;;;;;17.50;95.30;;;;;;5055709;28;19932;-71
2022/07/23 06:13:59;;;;;;;;;;;17.50;95.20;;;;;;5054601;28;19928;-71
2022/07/23 06:16:40;;;;;;;;;;;17.50;95.10;;;;;;5055827;28;20272;-71
2022/07/23 06:19:07;;;;;;;;;;;17.50;94.90;;;;;;5055552;28;19932;-71
2022/07/23 06:21:36;;;;;;;;;;;17.50;94.80;;;;;;5054475;28;19920;-71
2022/07/23 06:24:15;;;;;;;;;;;17.60;94.70;;;;;;5055624;28;19927;-71
2022/07/23 06:26:42;;;;;;;;;;;17.60;94.70;;;;;;5055465;28;19939;-72
2022/07/23 06:29:10;;;;;;;;;;;17.70;94.50;;;;;;5054545;28;20374;-72
2022/07/23 06:31:37;;;;;;;;;;;17.80;94.40;;;;;;5056168;28;19932;-71
2022/07/23 06:34:05;;;;;;;;;;;17.80;94.20;;;;;;5054261;28;19931;-71
2022/07/23 06:36:35;;;;;;;;;;;17.90;94.00;;;;;;5055171;28;19927;-72
2022/07/23 06:39:02;;;;;;;;;;;17.90;93.90;;;;;;5038722;28;19920;-72
2022/07/23 06:41:32;;;;;;;;;;;18.00;93.40;;;;;;5054132;28;19921;-72
2022/07/23 06:44:00;;;;;;;;;;;18.00;93.20;;;;;;5055363;28;19921;-71
2022/07/23 06:46:30;;;;;;;;;;;18.00;93.20;;;;;;5055096;28;19920;-71
2022/07/23 06:48:58;;;;;;;;;;;18.10;93.40;;;;;;5054061;28;20271;-71
2022/07/23 06:51:28;;;;;;;;;;;18.10;93.00;;;;;;5055123;28;19931;-71
2022/07/23 06:53:56;;;;;;;;;;;18.10;92.80;;;;;;5054983;28;19928;-71
2022/07/23 06:56:23;;;;;;;;;;;18.20;92.60;;;;;;5038565;28;19944;-71
2022/07/23 06:58:51;;;;;;;;;;;18.30;92.30;;;;;;5054654;28;19924;-71
2022/07/23 07:01:18;;;;;;;;;;;18.30;92.30;;;;;;5053000;28;19920;-71
2022/07/23 07:03:46;;;;;;;;;;;18.30;92.40;;;;;;5055061;28;19921;-72
2022/07/23 07:06:13;;;;;;;;;;;18.40;91.90;;;;;;5038073;28;19921;-71
2022/07/23 07:08:42;;;;;;;;;;;18.50;92.30;;;;;;5054414;28;19931;-72
2022/07/23 07:11:10;;;;;;;;;;;18.50;92.20;;;;;;5055410;28;19921;-71
2022/07/23 07:13:38;;;;;;;;;;;18.30;91.70;;;;;;5054854;28;19932;-72
2022/07/23 07:16:05;;;;;;;;;;;18.60;91.90;;;;;;5054320;28;19920;-71
2022/07/23 07:18:33;;;;;;;;;;;18.60;92.00;;;;;;5055348;28;19921;-71
2022/07/23 07:21:00;;;;;;;;;;;18.60;91.70;;;;;;5054403;28;19928;-71
2022/07/23 07:23:27;;;;;;;;;;;18.70;91.60;;;;;;5054609;28;20263;-71
2022/07/23 07:25:55;;;;;;;;;;;18.70;91.50;;;;;;5055138;28;19921;-72
2022/07/23 07:28:22;;;;;;;;;;;18.80;91.40;;;;;;5053313;28;20252;-71
2022/07/23 07:30:50;;;;;;;;;;;18.80;91.40;;;;;;5055181;28;19928;-72
2022/07/23 07:33:17;;;;;;;;;;;18.80;91.40;;;;;;5055230;28;19928;-72
2022/07/23 07:35:45;;;;;;;;;;;18.80;91.40;;;;;;5053183;28;19921;-72
2022/07/23 07:38:12;;;;;;;;;;;18.90;91.20;;;;;;5055124;28;19924;-71
2022/07/23 07:40:39;;;;;;;;;;;19.00;91.20;;;;;;5053270;28;19935;-71
2022/07/23 07:43:07;;;;;;;;;;;19.10;91.20;;;;;;5053924;28;19928;-71
2022/07/23 07:45:34;;;;;;;;;;;19.00;91.10;;;;;;5054847;28;19921;-71
2022/07/23 07:48:01;;;;;;;;;;;19.10;90.80;;;;;;5053723;28;19921;-71
2022/07/23 07:50:29;;;;;;;;;;;19.10;90.60;;;;;;5054665;28;19928;-70
2022/07/23 07:52:57;;;;;;;;;;;19.10;90.50;;;;;;5053762;28;20344;-72
2022/07/23 07:55:24;;;;;;;;;;;19.20;90.30;;;;;;5053398;28;19931;-72
2022/07/23 07:57:52;;;;;;;;;;;19.20;87.90;;;;;;5053654;28;19943;-72
2022/07/23 08:00:19;;;;;;;;;;;19.30;88.20;;;;;;5054635;28;20266;-72
2022/07/23 08:02:49;;;;;;;;;;;19.30;88.20;;;;;;5052635;28;19927;-72
2022/07/23 08:05:24;;;;;;;;;;;19.40;86.50;;;;;;5053729;28;19920;-72
2022/07/23 08:07:55;;;;;;;;;;;19.40;87.00;;;;;;5053374;28;20250;-71
2022/07/23 08:10:24;;;;;;;;;;;19.50;87.00;;;;;;5053671;28;19982;-71
2022/07/23 08:12:53;;;;;;;;;;;19.60;87.70;;;;;;5054301;28;19920;-72
2022/07/23 08:15:21;;;;;;;;;;;19.60;86.40;;;;;;5056677;28;19932;-71
2022/07/23 08:17:49;;;;;;;;;;;19.70;83.90;;;;;;5058354;28;20259;-72
2022/07/23 08:20:18;;;;;;;;;;;19.70;84.20;;;;;;5057139;28;19921;-74
2022/07/23 08:22:50;;;;;;;;;;;19.80;83.30;;;;;;5057046;28;19920;-74
2022/07/23 08:25:22;;;;;;;;;;;19.80;84.10;;;;;;5058569;28;19921;-74
2022/07/23 08:27:50;;;;;;;;;;;19.90;83.70;;;;;;5056608;28;20248;-73
2022/07/23 08:30:18;;;;;;;;;;;19.90;82.80;;;;;;5058364;28;19920;-73
2022/07/23 08:33:00;;;;;;;;;;;19.90;82.80;;;;;;5058336;28;19921;-73
2022/07/23 08:35:28;;;;;;;;;;;19.90;81.20;;;;;;5034078;28;20262;-74
2022/07/23 08:37:58;;;;;;;;;;;20.00;82.40;;;;;;5057145;28;20228;-74
2022/07/23 08:40:26;;;;;;;;;;;20.00;81.90;;;;;;5020167;28;20122;-75
2022/07/23 08:42:54;;;;;;;;;;;20.00;81.40;;;;;;5017006;28;19929;-75
2022/07/23 08:45:24;;;;;;;;;;;20.10;80.40;;;;;;5001847;28;19922;-75
2022/07/23 08:48:00;;;;;;;;;;;20.10;80.90;;;;;;5000196;28;19922;-74
2022/07/23 08:50:32;;;;;;;;;;;20.20;78.30;;;;;;5001462;28;20378;-74
2022/07/23 08:53:00;;;;;;;;;;;20.20;78.20;;;;;;5018338;28;19944;-75
2022/07/23 08:55:27;;;;;;;;;;;20.20;77.50;;;;;;4999948;28;20016;-75
2022/07/23 08:57:54;;;;;;;;;;;20.30;78.90;;;;;;5001607;28;19921;-75
2022/07/23 09:00:22;;;;;;;;;;;20.30;78.40;;;;;;5000960;28;20344;-75
2022/07/23 09:02:50;;;;;;;;;;;20.40;77.70;;;;;;5000912;28;19921;-75
2022/07/23 09:05:18;;;;;;;;;;;20.80;76.50;;;;;;5001263;28;19928;-74
2022/07/23 09:08:22;;;;;;;;;;;20.50;76.80;;;;;;5016987;28;19929;-74
2022/07/23 09:11:00;;;;;;;;;;;20.50;75.90;;;;;;4961476;28;20304;-74
2022/07/23 09:13:45;;;;;;;;;;;20.60;76.10;;;;;;4996035;28;20356;-75
2022/07/23 09:16:12;;;;;;;;;;;20.50;73.00;;;;;;4984705;28;19921;-75
2022/07/23 09:18:43;;;;;;;;;;;20.60;74.40;;;;;;5017896;28;19936;-74
2022/07/23 09:21:12;;;;;;;;;;;20.70;75.60;;;;;;5017134;28;19929;-74
2022/07/23 09:23:52;;;;;;;;;;;20.30;73.20;;;;;;5000655;28;20252;-75
2022/07/23 09:26:31;;;;;;;;;;;20.70;73.40;;;;;;5000012;28;19930;-73
2022/07/23 09:29:00;;;;;;;;;;;20.70;74.10;;;;;;5016649;28;19922;-73
2022/07/23 09:31:33;;;;;;;;;;;20.80;74.70;;;;;;5000593;28;19933;-72
2022/07/23 09:34:16;;;;;;;;;;;20.90;74.30;;;;;;5032514;28;19922;-72
2022/07/23 09:36:44;;;;;;;;;;;21.00;75.00;;;;;;5016842;28;20344;-72
2022/07/23 09:39:12;;;;;;;;;;;20.80;75.40;;;;;;5017298;28;20348;-73
2022/07/23 09:41:44;;;;;;;;;;;20.80;73.70;;;;;;5016366;28;19936;-72
2022/07/23 09:44:18;;;;;;;;;;;20.20;74.30;;;;;;5017844;28;19928;-72
2022/07/23 09:46:56;;;;;;;;;;;20.60;74.30;;;;;;5000248;28;19922;-71
2022/07/23 09:49:25;;;;;;;;;;;20.60;75.00;;;;;;5016424;28;19932;-71
2022/07/23 09:51:56;;;;;;;;;;;20.60;74.70;;;;;;5017390;28;19928;-72
2022/07/23 09:54:30;;;;;;;;;;;20.60;72.90;;;;;;5016329;28;20275;-74
2022/07/23 09:56:58;;;;;;;;;;;20.70;74.70;;;;;;5017543;28;19928;-72
2022/07/23 09:59:28;;;;;;;;;;;20.80;74.30;;;;;;5000108;28;19932;-74
2022/07/23 10:01:56;;;;;;;;;;;20.80;72.30;;;;;;4998944;28;20377;-73
2022/07/23 10:04:24;;;;;;;;;;;20.90;71.40;;;;;;5017141;28;19921;-72
2022/07/23 10:07:17;;;;;;;;;;;21.00;71.30;;;;;;5015408;28;19921;-73
2022/07/23 10:10:04;;;;;;;;;;;21.10;71.60;;;;;;5017275;28;19928;-73
2022/07/23 10:15:48;;;;;;;;;;;21.30;70.30;;;;;;4998575;28;19921;-70
2022/07/23 10:18:16;;;;;;;;;;;21.40;69.20;;;;;;5017103;28;19922;-72
2022/07/23 10:20:44;;;;;;;;;;;21.50;68.70;;;;;;5015760;28;20231;-71
2022/07/23 10:23:20;;;;;;;;;;;21.60;69.50;;;;;;5016577;28;19929;-73
2022/07/23 10:26:10;;;;;;;;;;;21.70;68.50;;;;;;5016653;28;20252;-72
2022/07/23 10:28:56;;;;;;;;;;;21.70;68.10;;;;;;5015523;28;19940;-72
2022/07/23 10:31:43;;;;;;;;;;;21.90;67.70;;;;;;5017118;28;19925;-73
2022/07/23 10:34:44;;;;;;;;;;;21.90;68.10;;;;;;5000686;28;19928;-74
2022/07/23 10:37:24;;;;;;;;;;;22.10;65.70;;;;;;4983127;28;19941;-74
2022/07/23 10:40:10;;;;;;;;;;;22.10;65.80;;;;;;5022565;28;19921;-73
2022/07/23 10:42:38;;;;;;;;;;;22.10;65.10;;;;;;5042288;28;20351;-72
2022/07/23 10:45:23;;;;;;;;;;;22.20;65.50;;;;;;5055522;28;19920;-73
2022/07/23 10:47:53;;;;;;;;;;;22.20;65.70;;;;;;5054009;28;19920;-73
2022/07/23 10:50:22;;;;;;;;;;;22.20;65.40;;;;;;5056333;28;20336;-73
2022/07/23 10:53:06;;;;;;;;;;;22.30;64.10;;;;;;5055872;28;20362;-72
2022/07/23 10:55:33;;;;;;;;;;;22.30;64.80;;;;;;5054845;28;19924;-72
2022/07/23 10:58:02;;;;;;;;;;;22.30;64.90;;;;;;5038516;28;20259;-73
2022/07/23 11:00:30;;;;;;;;;;;22.40;64.80;;;;;;5053767;28;19928;-71
2022/07/23 11:03:00;;;;;;;;;;;22.50;64.40;;;;;;5056130;28;19928;-71
2022/07/23 11:05:27;;;;;;;;;;;22.60;65.00;;;;;;5054835;28;19931;-72
2022/07/23 11:08:03;;;;;;;;;;;22.60;64.60;;;;;;5054397;28;19921;-72
2022/07/23 11:10:41;;;;;;;;;;;22.70;64.20;;;;;;5054624;28;20282;-72
2022/07/23 11:13:21;;;;;;;;;;;22.80;65.50;;;;;;5055643;28;19921;-72
2022/07/23 11:16:01;;;;;;;;;;;22.80;67.70;;;;;;5054381;28;19932;-72
2022/07/23 11:18:44;;;;;;;;;;;23.00;68.00;;;;;;5050431;28;19931;-69
2022/07/23 11:21:20;;;;;;;;;;;23.10;68.10;;;;;;5052670;28;19921;-75
2022/07/23 11:24:00;;;;;;;;;;;23.00;66.10;;;;;;5055559;28;19920;-72
2022/07/23 11:26:43;;;;;;;;;;;23.20;67.50;;;;;;5037782;28;19920;-69
2022/07/23 11:29:35;;;;;;;;;;;23.30;66.10;;;;;;5054202;28;19920;-70
2022/07/23 11:32:05;;;;;;;;;;;23.40;67.00;;;;;;5055218;28;19924;-71
2022/07/23 11:34:32;;;;;;;;;;;23.50;63.40;;;;;;5054048;28;19920;-71
2022/07/23 11:37:04;;;;;;;;;;;23.50;63.20;;;;;;5055465;28;19932;-75
2022/07/23 11:39:32;;;;;;;;;;;23.40;63.50;;;;;;5044370;28;20233;-76
2022/07/23 11:42:00;;;;;;;;;;;23.30;63.20;;;;;;5000189;28;19928;-72
2022/07/23 11:44:33;;;;;;;;;;;23.20;63.60;;;;;;5017862;28;19921;-72
2022/07/23 11:47:05;;;;;;;;;;;23.30;64.10;;;;;;5033962;28;19921;-72
2022/07/23 11:49:32;;;;;;;;;;;23.40;63.60;;;;;;5014580;28;19928;-72
2022/07/23 11:55:31;;;;;;;;;;;23.50;63.30;;;;;;5013586;28;19909;-74
2022/07/23 11:57:59;;;;;;;;;;;23.60;62.60;;;;;;4997988;28;19928;-75
2022/07/23 12:00:29;;;;;;;;;;;23.70;62.10;;;;;;4996004;28;20268;-75
2022/07/23 12:02:59;;;;;;;;;;;23.80;61.90;;;;;;5014568;28;20008;-71
2022/07/23 12:05:26;;;;;;;;;;;23.90;61.50;;;;;;5014697;28;19921;-74
2022/07/23 12:07:55;;;;;;;;;;;24.00;61.40;;;;;;5013777;28;19925;-73
2022/07/23 12:10:30;;;;;;;;;;;24.00;61.10;;;;;;4997871;28;19929;-74
2022/07/23 12:12:59;;;;;;;;;;;24.00;60.60;;;;;;4981781;28;19921;-72
2022/07/23 12:15:30;;;;;;;;;;;24.00;60.90;;;;;;5031878;28;19929;-72
2022/07/23 12:17:58;;;;;;;;;;;24.10;61.60;;;;;;4983986;28;19921;-71
2022/07/23 12:20:31;;;;;;;;;;;24.20;61.00;;;;;;5032422;28;19921;-70
2022/07/23 12:23:00;;;;;;;;;;;24.20;61.10;;;;;;5017197;28;19921;-71
2022/07/23 12:25:32;;;;;;;;;;;24.30;61.30;;;;;;5034462;28;19921;-71
2022/07/23 12:28:08;;;;;;;;;;;24.40;60.70;;;;;;5033485;28;19921;-71
2022/07/23 12:30:42;;;;;;;;;;;24.40;61.20;;;;;;5016890;28;19921;-74
2022/07/23 12:33:35;;;;;;;;;;;24.30;61.40;;;;;;5017001;28;19932;-74
2022/07/23 12:36:04;;;;;;;;;;;24.40;62.70;;;;;;5028976;28;19921;-72
2022/07/23 12:38:47;;;;;;;;;;;24.50;61.20;;;;;;5034020;28;19928;-74
2022/07/23 12:41:14;;;;;;;;;;;24.50;61.10;;;;;;4983277;28;20351;-73
2022/07/23 12:43:43;;;;;;;;;;;24.30;59.70;;;;;;5017374;28;19921;-75
2022/07/23 12:46:20;;;;;;;;;;;24.60;61.40;;;;;;5034101;28;19928;-75
2022/07/23 12:48:51;;;;;;;;;;;24.60;60.00;;;;;;4993322;28;19921;-72
2022/07/23 12:51:21;;;;;;;;;;;24.70;59.80;;;;;;4997437;28;19932;-75
2022/07/23 12:53:53;;;;;;;;;;;24.80;60.30;;;;;;5013257;28;19929;-75
2022/07/23 12:56:30;;;;;;;;;;;24.80;59.80;;;;;;4997817;28;20071;-73
2022/07/23 12:59:05;;;;;;;;;;;25.00;60.20;;;;;;4998029;28;20368;-73
2022/07/23 13:01:35;;;;;;;;;;;25.10;59.50;;;;;;4999589;28;19921;-70
2022/07/23 13:04:06;;;;;;;;;;;25.20;58.80;;;;;;5026163;28;19921;-70
2022/07/23 13:06:42;;;;;;;;;;;25.30;59.40;;;;;;5037556;28;19921;-70
2022/07/23 13:09:14;;;;;;;;;;;25.30;58.90;;;;;;5036364;28;19921;-70
2022/07/23 13:11:43;;;;;;;;;;;25.20;59.20;;;;;;5037388;28;20340;-73
2022/07/23 13:14:11;;;;;;;;;;;25.30;58.70;;;;;;5002946;28;20360;-70
2022/07/23 13:16:39;;;;;;;;;;;25.30;58.60;;;;;;5037460;28;20267;-71
2022/07/23 13:19:07;;;;;;;;;;;25.40;58.70;;;;;;5037321;28;19921;-71
2022/07/23 13:21:38;;;;;;;;;;;25.50;59.00;;;;;;5031247;28;19921;-70
2022/07/23 13:24:06;;;;;;;;;;;25.50;58.70;;;;;;5017638;28;19921;-72
2022/07/23 13:26:36;;;;;;;;;;;25.60;58.60;;;;;;5032524;28;19922;-69
2022/07/23 13:29:04;;;;;;;;;;;25.60;58.60;;;;;;5016214;28;19921;-68
2022/07/23 13:31:36;;;;;;;;;;;25.60;58.40;;;;;;5017474;28;19928;-68
2022/07/23 13:34:05;;;;;;;;;;;25.60;58.80;;;;;;5016147;28;20180;-70
2022/07/23 13:36:35;;;;;;;;;;;25.60;58.70;;;;;;5032460;28;19921;-70
2022/07/23 13:39:04;;;;;;;;;;;25.70;58.90;;;;;;5017233;28;19928;-70
2022/07/23 13:41:34;;;;;;;;;;;25.70;57.70;;;;;;4998817;28;19921;-74
2022/07/23 13:44:03;;;;;;;;;;;26.10;57.90;;;;;;5000301;28;20275;-70
2022/07/23 13:46:30;;;;;;;;;;;25.90;57.90;;;;;;5022312;28;19929;-70
2022/07/23 13:48:58;;;;;;;;;;;25.90;57.80;;;;;;5022147;28;19929;-70
2022/07/23 13:51:26;;;;;;;;;;;26.10;58.10;;;;;;4999572;28;19926;-73
2022/07/23 13:53:55;;;;;;;;;;;26.10;57.30;;;;;;5006036;28;19932;-72
2022/07/23 13:56:22;;;;;;;;;;;26.30;58.50;;;;;;5037233;28;19921;-70
2022/07/23 13:58:50;;;;;;;;;;;26.50;59.30;;;;;;5020178;28;19927;-69
2022/07/23 14:01:17;;;;;;;;;;;26.70;59.00;;;;;;5035986;28;19921;-70
2022/07/23 14:03:45;;;;;;;;;;;26.90;57.50;;;;;;5037071;28;19924;-69
2022/07/23 14:06:13;;;;;;;;;;;27.00;57.40;;;;;;5037525;28;19921;-71
2022/07/23 14:08:43;;;;;;;;;;;27.10;57.70;;;;;;5035870;28;20279;-71
2022/07/23 14:11:12;;;;;;;;;;;27.20;57.20;;;;;;5019175;28;19928;-75
2022/07/23 14:13:40;;;;;;;;;;;27.30;56.90;;;;;;5037016;28;19921;-73
2022/07/23 14:16:07;;;;;;;;;;;27.30;57.10;;;;;;5035688;28;19921;-71
2022/07/23 14:18:36;;;;;;;;;;;27.40;56.90;;;;;;5036950;28;19928;-75
2022/07/23 14:21:04;;;;;;;;;;;27.40;56.90;;;;;;5018214;28;20236;-73
2022/07/23 14:23:33;;;;;;;;;;;27.40;57.00;;;;;;5036328;28;19928;-76
2022/07/23 14:26:01;;;;;;;;;;;27.40;57.30;;;;;;5036384;28;19928;-77
2022/07/23 14:28:32;;;;;;;;;;;27.50;57.80;;;;;;5001627;28;20299;-75
2022/07/23 14:31:00;;;;;;;;;;;27.50;58.10;;;;;;5018975;28;19921;-75
2022/07/23 14:33:34;;;;;;;;;;;27.60;58.60;;;;;;5036245;28;19928;-77
2022/07/23 14:36:04;;;;;;;;;;;27.60;58.00;;;;;;5001238;28;20371;-77
2022/07/23 14:38:34;;;;;;;;;;;27.70;58.30;;;;;;5035632;28;19921;-79
2022/07/23 14:41:01;;;;;;;;;;;27.30;57.60;;;;;;5035141;28;19921;-79